Terminal Aerodrome Forecast
Issued by NWS Upton, NY

Home | Current Version | Previous Version | Text Only | Print | Product List | Glossary On
Versions: 1 2 3 4 5 6 7 8 9 10 11 12 13 14 15 16 17 18 19 20 21 22 23 24 25 26
000
FTUS41 KOKX 301730
TAFEWR
TAF
KEWR 301730Z 3018/3124 22015G23KT P6SM BKN040 OVC100
     FM301900 26016G25KT P6SM BKN050 BKN100
     FM302300 28012KT P6SM SCT050 SCT150
     FM310400 27008KT P6SM SKC
     FM311500 26008KT P6SM SCT040 SCT150
     FM311800 25006KT P6SM SCT040 BKN100
     FM312100 VRB04KT 5SM -RA BR BKN015 OVC050=

USA.gov is the U.S. government's official web portal to all federal, state and local government web resources and services.